ěÝzenÝ letovÚho provozu ╚eskÚ republiky
Letiste: LKTB Aktualizace: 17.05.2022 23:30:30  UTC
 METAR LKTB 17.05. 23:30 ...
METAR LKTB 172330Z VRB02KT CAVOK 12/10 Q1022 NOSIG=
 TAF LKTB 17.05. 23:00 ...
TAF LKTB 172300Z 1800/1906 35006KT CAVOK      BECMG 1806/1808 08008KT=